sensor_id;sensor_type;location;lat;lon;timestamp;pressure;altitude;pressure_sealevel;temperature;humidity
53647;BME280;39550;52.230;5.194;2023-02-18T03:42:46;101742.41;;;7.24;94.79
53647;BME280;39550;52.230;5.194;2023-02-18T03:45:11;101738.09;;;7.23;95.26
53647;BME280;39550;52.230;5.194;2023-02-18T03:47:37;101738.97;;;7.24;94.72
53647;BME280;39550;52.230;5.194;2023-02-18T03:50:02;101734.66;;;7.23;94.71
53647;BME280;39550;52.230;5.194;2023-02-18T03:52:28;101729.59;;;7.24;94.63
53647;BME280;39550;52.230;5.194;2023-02-18T03:54:53;101730.47;;;7.25;95.05
53647;BME280;39550;52.230;5.194;2023-02-18T03:57:18;101724.41;;;7.23;95.12
53647;BME280;39550;52.230;5.194;2023-02-18T03:59:44;101720.19;;;7.25;94.68
53647;BME280;39550;52.230;5.194;2023-02-18T04:02:10;101716.81;;;7.26;95.03
53647;BME280;39550;52.230;5.194;2023-02-18T04:04:35;101721.06;;;7.25;94.59
53647;BME280;39550;52.230;5.194;2023-02-18T04:07:01;101716.81;;;7.26;94.74
53647;BME280;39550;52.230;5.194;2023-02-18T04:09:26;101711.69;;;7.26;94.20
53647;BME280;39550;52.230;5.194;2023-02-18T04:11:52;101704.81;;;7.25;94.59
53647;BME280;39550;52.230;5.194;2023-02-18T04:14:17;101696.22;;;7.23;94.89
53647;BME280;39550;52.230;5.194;2023-02-18T04:16:42;101692.00;;;7.25;94.26
53647;BME280;39550;52.230;5.194;2023-02-18T04:19:08;101685.13;;;7.24;95.11
53647;BME280;39550;52.230;5.194;2023-02-18T04:21:33;101688.56;;;7.24;94.99
53647;BME280;39550;52.230;5.194;2023-02-18T04:23:59;101697.94;;;7.24;94.59
53647;BME280;39550;52.230;5.194;2023-02-18T04:26:25;101682.56;;;7.24;94.82
53647;BME280;39550;52.230;5.194;2023-02-18T04:28:51;101688.56;;;7.24;94.54
53647;BME280;39550;52.230;5.194;2023-02-18T04:31:16;101687.69;;;7.24;94.61
53647;BME280;39550;52.230;5.194;2023-02-18T04:33:42;101692.72;;;7.21;94.68
53647;BME280;39550;52.230;5.194;2023-02-18T04:36:07;101680.94;;;7.26;94.87
53647;BME280;39550;52.230;5.194;2023-02-18T04:38:33;101668.94;;;7.25;94.35
53647;BME280;39550;52.230;5.194;2023-02-18T04:40:58;101663.81;;;7.25;94.34
53647;BME280;39550;52.230;5.194;2023-02-18T04:43:23;101663.81;;;7.25;94.18
53647;BME280;39550;52.230;5.194;2023-02-18T04:45:49;101651.78;;;7.24;94.25
53647;BME280;39550;52.230;5.194;2023-02-18T04:48:14;101650.06;;;7.23;94.91
53647;BME280;39550;52.230;5.194;2023-02-18T04:50:40;101648.31;;;7.22;94.81
53647;BME280;39550;52.230;5.194;2023-02-18T04:53:05;101653.59;;;7.26;94.52
53647;BME280;39550;52.230;5.194;2023-02-18T04:55:31;101645.03;;;7.26;94.98
53647;BME280;39550;52.230;5.194;2023-02-18T04:57:56;101659.53;;;7.25;95.08
53647;BME280;39550;52.230;5.194;2023-02-18T05:00:21;101650.16;;;7.26;94.68
53647;BME280;39550;52.230;5.194;2023-02-18T05:02:48;101658.69;;;7.25;95.10
53647;BME280;39550;52.230;5.194;2023-02-18T05:05:14;101641.53;;;7.24;94.52
53647;BME280;39550;52.230;5.194;2023-02-18T05:07:40;101642.25;;;7.20;94.46
53647;BME280;39550;52.230;5.194;2023-02-18T05:10:08;101634.75;;;7.24;94.23
53647;BME280;39550;52.230;5.194;2023-02-18T05:12:33;101645.03;;;7.26;94.84
53647;BME280;39550;52.230;5.194;2023-02-18T05:14:59;101644.09;;;7.24;94.91
53647;BME280;39550;52.230;5.194;2023-02-18T05:17:24;101639.06;;;7.27;94.89
53647;BME280;39550;52.230;5.194;2023-02-18T05:19:49;101637.34;;;7.26;94.89
53647;BME280;39550;52.230;5.194;2023-02-18T05:22:15;101633.13;;;7.28;94.86
53647;BME280;39550;52.230;5.194;2023-02-18T05:24:41;101627.09;;;7.26;94.71
53647;BME280;39550;52.230;5.194;2023-02-18T05:27:07;101628.00;;;7.28;94.19
53647;BME280;39550;52.230;5.194;2023-02-18T05:29:32;101623.66;;;7.25;94.78
53647;BME280;39550;52.230;5.194;2023-02-18T05:31:57;101619.41;;;7.26;94.57
53647;BME280;39550;52.230;5.194;2023-02-18T05:34:24;101614.28;;;7.26;94.42
53647;BME280;39550;52.230;5.194;2023-02-18T05:36:50;101616.00;;;7.27;94.54
53647;BME280;39550;52.230;5.194;2023-02-18T05:39:15;101602.38;;;7.28;94.89
53647;BME280;39550;52.230;5.194;2023-02-18T05:41:40;101597.25;;;7.28;95.17
53647;BME280;39550;52.230;5.194;2023-02-18T05:44:06;101618.56;;;7.27;94.96
53647;BME280;39550;52.230;5.194;2023-02-18T05:46:50;101607.50;;;7.28;95.10
53647;BME280;39550;52.230;5.194;2023-02-18T05:49:15;101603.25;;;7.28;95.48
53647;BME280;39550;52.230;5.194;2023-02-18T05:51:40;101592.06;;;7.26;95.26
53647;BME280;39550;52.230;5.194;2023-02-18T05:54:06;101592.94;;;7.27;95.26
53647;BME280;39550;52.230;5.194;2023-02-18T05:56:31;101594.69;;;7.28;95.35
53647;BME280;39550;52.230;5.194;2023-02-18T05:58:57;101599.00;;;7.29;95.80
53647;BME280;39550;52.230;5.194;2023-02-18T06:01:22;101596.44;;;7.29;95.27
53647;BME280;39550;52.230;5.194;2023-02-18T06:03:47;101595.63;;;7.30;95.44
53647;BME280;39550;52.230;5.194;2023-02-18T06:06:13;101592.13;;;7.28;95.48
53647;BME280;39550;52.230;5.194;2023-02-18T06:08:38;101600.75;;;7.30;95.28
53647;BME280;39550;52.230;5.194;2023-02-18T06:11:04;101598.94;;;7.27;95.41
53647;BME280;39550;52.230;5.194;2023-02-18T06:13:30;101604.13;;;7.29;95.72
53647;BME280;39550;52.230;5.194;2023-02-18T06:15:56;101600.63;;;7.27;95.64
53647;BME280;39550;52.230;5.194;2023-02-18T06:18:22;101600.75;;;7.30;95.55
53647;BME280;39550;52.230;5.194;2023-02-18T06:20:49;101603.31;;;7.30;95.83
53647;BME280;39550;52.230;5.194;2023-02-18T06:23:15;101599.84;;;7.29;94.99
53647;BME280;39550;52.230;5.194;2023-02-18T06:25:41;101598.19;;;7.30;95.41
53647;BME280;39550;52.230;5.194;2023-02-18T06:28:08;101586.22;;;7.30;95.05
53647;BME280;39550;52.230;5.194;2023-02-18T06:30:34;101594.72;;;7.29;95.49
53647;BME280;39550;52.230;5.194;2023-02-18T06:33:00;101601.59;;;7.30;95.56
53647;BME280;39550;52.230;5.194;2023-02-18T06:35:29;101588.66;;;7.26;95.05
53647;BME280;39550;52.230;5.194;2023-02-18T06:37:55;101604.16;;;7.30;95.72
53647;BME280;39550;52.230;5.194;2023-02-18T06:40:21;101547.53;;;6.97;95.42
53647;BME280;39550;52.230;5.194;2023-02-18T06:42:46;101583.19;;;7.16;95.61
53647;BME280;39550;52.230;5.194;2023-02-18T06:45:12;101589.84;;;7.11;96.49
53647;BME280;39550;52.230;5.194;2023-02-18T06:47:37;101578.94;;;7.17;95.85
53647;BME280;39550;52.230;5.194;2023-02-18T06:50:03;101583.28;;;7.20;96.08
53647;BME280;39550;52.230;5.194;2023-02-18T06:52:29;101571.09;;;7.12;96.18
53647;BME280;39550;52.230;5.194;2023-02-18T06:54:57;101567.72;;;7.13;96.14
53647;BME280;39550;52.230;5.194;2023-02-18T06:57:23;101570.38;;;7.16;95.75
53647;BME280;39550;52.230;5.194;2023-02-18T06:59:48;101558.38;;;7.15;95.85
53647;BME280;39550;52.230;5.194;2023-02-18T07:02:14;101534.66;;;6.95;95.90
53647;BME280;39550;52.230;5.194;2023-02-18T07:04:39;101562.59;;;7.13;96.41
53647;BME280;39550;52.230;5.194;2023-02-18T07:07:05;101553.88;;;7.08;96.16
53647;BME280;39550;52.230;5.194;2023-02-18T07:09:31;101594.84;;;7.32;95.89
53647;BME280;39550;52.230;5.194;2023-02-18T07:11:56;101543.63;;;7.08;95.58
53647;BME280;39550;52.230;5.194;2023-02-18T07:14:22;101527.03;;;6.97;96.13
53647;BME280;39550;52.230;5.194;2023-02-18T07:16:49;101521.81;;;6.94;96.21
53647;BME280;39550;52.230;5.194;2023-02-18T07:19:15;101525.22;;;6.94;95.20
53647;BME280;39550;52.230;5.194;2023-02-18T07:21:41;101550.69;;;7.15;96.07
53647;BME280;39550;52.230;5.194;2023-02-18T07:24:07;101514.13;;;6.94;96.07
53647;BME280;39550;52.230;5.194;2023-02-18T07:26:32;101535.94;;;7.08;96.25
53647;BME280;39550;52.230;5.194;2023-02-18T07:28:58;101511.69;;;6.98;96.32
53647;BME280;39550;52.230;5.194;2023-02-18T07:31:23;101575.19;;;7.33;95.39
53647;BME280;39550;52.230;5.194;2023-02-18T07:36:16;101572.63;;;7.33;95.94
53647;BME280;39550;52.230;5.194;2023-02-18T07:38:41;101564.13;;;7.34;96.08
53647;BME280;39550;52.230;5.194;2023-02-18T07:41:16;101566.56;;;7.31;95.82
53647;BME280;39550;52.230;5.194;2023-02-18T07:43:42;101567.59;;;7.36;95.82
53647;BME280;39550;52.230;5.194;2023-02-18T07:46:07;101574.44;;;7.36;95.91
53647;BME280;39550;52.230;5.194;2023-02-18T07:48:33;101568.41;;;7.35;95.78
53647;BME280;39550;52.230;5.194;2023-02-18T07:53:27;101526.09;;;6.95;95.26
53647;BME280;39550;52.230;5.194;2023-02-18T07:55:52;101562.78;;;7.20;95.76
53647;BME280;39550;52.230;5.194;2023-02-18T07:58:28;101599.19;;;7.35;96.15
53647;BME280;39550;52.230;5.194;2023-02-18T08:00:55;101594.06;;;7.35;95.36
53647;BME280;39550;52.230;5.194;2023-02-18T08:03:23;101599.19;;;7.35;95.64
53647;BME280;39550;52.230;5.194;2023-02-18T08:05:50;101554.63;;;7.06;95.63
53647;BME280;39550;52.230;5.194;2023-02-18T08:08:22;101599.19;;;7.35;95.91
53647;BME280;39550;52.230;5.194;2023-02-18T08:10:49;101546.59;;;6.95;95.43
53647;BME280;39550;52.230;5.194;2023-02-18T08:13:20;101606.88;;;7.35;95.52
53647;BME280;39550;52.230;5.194;2023-02-18T08:15:46;101546.91;;;7.04;95.34
53647;BME280;39550;52.230;5.194;2023-02-18T08:18:18;101588.28;;;7.15;95.23
53647;BME280;39550;52.230;5.194;2023-02-18T08:20:46;101591.84;;;7.19;95.35
53647;BME280;39550;52.230;5.194;2023-02-18T08:23:21;101523.94;;;6.81;95.33
53647;BME280;39550;52.230;5.194;2023-02-18T08:25:51;101515.03;;;6.70;94.94
53647;BME280;39550;52.230;5.194;2023-02-18T08:28:18;101499.53;;;6.67;95.40
53647;BME280;39550;52.230;5.194;2023-02-18T08:30:49;101590.03;;;7.16;95.59
53647;BME280;39550;52.230;5.194;2023-02-18T08:33:16;101619.59;;;7.32;95.17
53647;BME280;39550;52.230;5.194;2023-02-18T08:35:41;101605.75;;;7.27;95.10
53647;BME280;39550;52.230;5.194;2023-02-18T08:38:07;101610.06;;;7.28;95.50
53647;BME280;39550;52.230;5.194;2023-02-18T08:40:32;101593.69;;;7.23;95.43
53647;BME280;39550;52.230;5.194;2023-02-18T08:42:58;101615.25;;;7.29;95.31
53647;BME280;39550;52.230;5.194;2023-02-18T08:45:23;101578.03;;;7.15;95.16
53647;BME280;39550;52.230;5.194;2023-02-18T08:47:48;101595.22;;;7.18;95.27
53647;BME280;39550;52.230;5.194;2023-02-18T08:50:17;101619.59;;;7.32;94.98
53647;BME280;39550;52.230;5.194;2023-02-18T08:52:44;101563.94;;;7.02;95.01
53647;BME280;39550;52.230;5.194;2023-02-18T08:55:09;101628.09;;;7.31;94.96
53647;BME280;39550;52.230;5.194;2023-02-18T08:57:35;101556.84;;;6.95;95.04
53647;BME280;39550;52.230;5.194;2023-02-18T09:00:00;101518.41;;;6.69;95.03
53647;BME280;39550;52.230;5.194;2023-02-18T09:02:25;101548.22;;;6.93;95.22
53647;BME280;39550;52.230;5.194;2023-02-18T09:04:53;101604.13;;;7.29;94.84
53647;BME280;39550;52.230;5.194;2023-02-18T09:07:18;101598.59;;;7.16;95.05
53647;BME280;39550;52.230;5.194;2023-02-18T09:09:44;101628.09;;;7.31;95.06
53647;BME280;39550;52.230;5.194;2023-02-18T09:12:09;101619.41;;;7.26;94.35
53647;BME280;39550;52.230;5.194;2023-02-18T09:14:34;101605.47;;;7.18;94.34
53647;BME280;39550;52.230;5.194;2023-02-18T09:17:00;101580.25;;;7.06;95.11
53647;BME280;39550;52.230;5.194;2023-02-18T09:19:25;101511.63;;;6.71;94.56
53647;BME280;39550;52.230;5.194;2023-02-18T09:21:51;101583.06;;;7.12;95.09
53647;BME280;39550;52.230;5.194;2023-02-18T09:24:21;101615.00;;;7.22;94.72
53647;BME280;39550;52.230;5.194;2023-02-18T09:26:48;101622.78;;;7.25;94.76
53647;BME280;39550;52.230;5.194;2023-02-18T09:29:14;101634.78;;;7.26;94.40
53647;BME280;39550;52.230;5.194;2023-02-18T09:31:40;101643.63;;;7.34;94.79
53647;BME280;39550;52.230;5.194;2023-02-18T09:34:05;101633.03;;;7.25;94.43
53647;BME280;39550;52.230;5.194;2023-02-18T09:36:32;101653.03;;;7.35;95.07
53647;BME280;39550;52.230;5.194;2023-02-18T09:38:58;101637.25;;;7.23;94.73
53647;BME280;39550;52.230;5.194;2023-02-18T09:43:57;101653.03;;;7.35;94.02
53647;BME280;39550;52.230;5.194;2023-02-18T09:46:33;101632.19;;;7.24;94.35
53647;BME280;39550;52.230;5.194;2023-02-18T09:49:06;101645.47;;;7.38;94.23
53647;BME280;39550;52.230;5.194;2023-02-18T09:51:37;101596.41;;;7.03;94.13
53647;BME280;39550;52.230;5.194;2023-02-18T09:54:03;101565.66;;;6.77;94.09
53647;BME280;39550;52.230;5.194;2023-02-18T09:56:31;101656.53;;;7.37;94.27
53647;BME280;39550;52.230;5.194;2023-02-18T09:58:58;101583.44;;;6.98;94.09
53647;BME280;39550;52.230;5.194;2023-02-18T10:01:32;101629.56;;;7.23;93.94
53647;BME280;39550;52.230;5.194;2023-02-18T10:04:03;101654.72;;;7.35;93.98
53647;BME280;39550;52.230;5.194;2023-02-18T10:06:32;101662.69;;;7.42;93.98
53647;BME280;39550;52.230;5.194;2023-02-18T10:09:05;101670.41;;;7.42;94.36
53647;BME280;39550;52.230;5.194;2023-02-18T10:11:42;101666.78;;;7.37;94.28
53647;BME280;39550;52.230;5.194;2023-02-18T10:14:12;101658.44;;;7.43;93.60
53647;BME280;39550;52.230;5.194;2023-02-18T10:16:39;101678.09;;;7.42;94.34
53647;BME280;39550;52.230;5.194;2023-02-18T10:19:32;101681.56;;;7.44;93.85
53647;BME280;39550;52.230;5.194;2023-02-18T10:22:01;101649.69;;;7.38;93.73
53647;BME280;39550;52.230;5.194;2023-02-18T10:24:36;101661.13;;;7.47;93.97
53647;BME280;39550;52.230;5.194;2023-02-18T10:27:04;101664.56;;;7.46;93.42
53647;BME280;39550;52.230;5.194;2023-02-18T10:29:30;101674.09;;;7.50;93.41
53647;BME280;39550;52.230;5.194;2023-02-18T10:37:38;101690.50;;;7.56;93.30
53647;BME280;39550;52.230;5.194;2023-02-18T10:40:21;101654.06;;;7.40;92.94
53647;BME280;39550;52.230;5.194;2023-02-18T10:42:59;101709.47;;;7.61;93.03
53647;BME280;39550;52.230;5.194;2023-02-18T10:45:35;101698.59;;;7.68;93.38
53647;BME280;39550;52.230;5.194;2023-02-18T10:48:25;101704.56;;;7.67;93.14
53647;BME280;39550;52.230;5.194;2023-02-18T10:50:54;101713.00;;;7.63;92.87
53647;BME280;39550;52.230;5.194;2023-02-18T10:53:35;101683.63;;;7.55;93.09
53647;BME280;39550;52.230;5.194;2023-02-18T10:56:02;101690.91;;;7.68;93.30
53647;BME280;39550;52.230;5.194;2023-02-18T10:58:46;101703.00;;;7.72;92.94
53647;BME280;39550;52.230;5.194;2023-02-18T11:01:16;101688.38;;;7.70;92.73
53647;BME280;39550;52.230;5.194;2023-02-18T11:03:49;101666.81;;;7.63;93.47
53647;BME280;39550;52.230;5.194;2023-02-18T11:06:22;101678.91;;;7.67;92.59
53647;BME280;39550;52.230;5.194;2023-02-18T11:08:49;101686.44;;;7.62;93.14
53647;BME280;39550;52.230;5.194;2023-02-18T11:11:20;101684.25;;;7.73;92.93
53647;BME280;39550;52.230;5.194;2023-02-18T11:13:52;101692.97;;;7.78;92.84
53647;BME280;39550;52.230;5.194;2023-02-18T11:16:21;101649.63;;;7.60;92.56
53647;BME280;39550;52.230;5.194;2023-02-18T11:18:47;101675.09;;;7.81;92.95
53647;BME280;39550;52.230;5.194;2023-02-18T11:21:31;101690.81;;;7.91;93.13
53647;BME280;39550;52.230;5.194;2023-02-18T11:24:09;101673.31;;;7.79;92.85
53647;BME280;39550;52.230;5.194;2023-02-18T11:26:39;101677.25;;;7.69;93.41
53647;BME280;39550;52.230;5.194;2023-02-18T11:29:22;101687.44;;;7.66;92.83
53647;BME280;39550;52.230;5.194;2023-02-18T11:31:50;101686.81;;;7.73;92.88
53647;BME280;39550;52.230;5.194;2023-02-18T11:34:22;101691.97;;;7.75;93.01
53647;BME280;39550;52.230;5.194;2023-02-18T11:36:51;101675.72;;;7.74;93.47
53647;BME280;39550;52.230;5.194;2023-02-18T11:42:03;101666.84;;;7.64;93.66
53647;BME280;39550;52.230;5.194;2023-02-18T11:44:36;101698.81;;;7.74;93.30
53647;BME280;39550;52.230;5.194;2023-02-18T11:49:37;101693.06;;;7.81;93.38
53647;BME280;39550;52.230;5.194;2023-02-18T11:52:26;101693.78;;;7.77;93.53
53647;BME280;39550;52.230;5.194;2023-02-18T11:55:18;101665.25;;;7.68;92.89
53647;BME280;39550;52.230;5.194;2023-02-18T11:57:54;101698.69;;;7.71;93.38
53647;BME280;39550;52.230;5.194;2023-02-18T12:00:40;101685.72;;;7.66;92.87
53647;BME280;39550;52.230;5.194;2023-02-18T12:03:40;101687.00;;;7.79;93.34
53647;BME280;39550;52.230;5.194;2023-02-18T12:06:18;101678.34;;;7.76;92.92
53647;BME280;39550;52.230;5.194;2023-02-18T12:08:50;101666.28;;;7.73;92.71
53647;BME280;39550;52.230;5.194;2023-02-18T12:11:29;101671.38;;;7.72;92.50
53647;BME280;39550;52.230;5.194;2023-02-18T12:13:57;101663.63;;;7.70;92.59
53647;BME280;39550;52.230;5.194;2023-02-18T12:19:03;101689.78;;;7.86;93.24
53647;BME280;39550;52.230;5.194;2023-02-18T12:27:04;101676.41;;;7.96;91.99
53647;BME280;39550;52.230;5.194;2023-02-18T12:32:30;101686.50;;;7.90;92.60
53647;BME280;39550;52.230;5.194;2023-02-18T12:38:23;101672.72;;;7.88;92.71
53647;BME280;39550;52.230;5.194;2023-02-18T12:44:37;101672.94;;;7.94;92.14
53647;BME280;39550;52.230;5.194;2023-02-18T12:47:30;101654.56;;;7.81;92.27
53647;BME280;39550;52.230;5.194;2023-02-18T12:53:23;101692.88;;;8.02;92.76
53647;BME280;39550;52.230;5.194;2023-02-18T12:58:42;101683.84;;;7.87;92.83
53647;BME280;39550;52.230;5.194;2023-02-18T13:01:32;101703.91;;;8.00;92.89
53647;BME280;39550;52.230;5.194;2023-02-18T13:04:24;101695.41;;;8.01;92.56
53647;BME280;39550;52.230;5.194;2023-02-18T13:07:06;101695.34;;;7.99;92.90
53647;BME280;39550;52.230;5.194;2023-02-18T13:15:19;101696.84;;;7.93;92.98
53647;BME280;39550;52.230;5.194;2023-02-18T13:17:46;101702.78;;;7.92;93.70
53647;BME280;39550;52.230;5.194;2023-02-18T13:20:22;101705.16;;;7.86;93.48
53647;BME280;39550;52.230;5.194;2023-02-18T13:22:50;101696.75;;;7.90;93.22
53647;BME280;39550;52.230;5.194;2023-02-18T13:25:18;101707.97;;;7.93;93.79
53647;BME280;39550;52.230;5.194;2023-02-18T13:30:34;101691.72;;;7.93;93.29
53647;BME280;39550;52.230;5.194;2023-02-18T13:35:58;101627.34;;;7.59;93.42
53647;BME280;39550;52.230;5.194;2023-02-18T13:38:53;101686.50;;;7.90;92.97
53647;BME280;39550;52.230;5.194;2023-02-18T13:41:32;101717.38;;;7.93;92.88
53647;BME280;39550;52.230;5.194;2023-02-18T13:44:08;101658.88;;;7.82;92.81
53647;BME280;39550;52.230;5.194;2023-02-18T13:46:47;101660.72;;;7.87;92.43
53647;BME280;39550;52.230;5.194;2023-02-18T13:49:22;101671.56;;;8.05;91.31
53647;BME280;39550;52.230;5.194;2023-02-18T13:51:51;101640.59;;;7.99;91.61
53647;BME280;39550;52.230;5.194;2023-02-18T13:54:25;101712.16;;;8.44;91.31
53647;BME280;39550;52.230;5.194;2023-02-18T13:57:01;101664.06;;;8.40;90.00
53647;BME280;39550;52.230;5.194;2023-02-18T13:59:42;101708.50;;;8.65;89.59
53647;BME280;39550;52.230;5.194;2023-02-18T14:20:43;101708.19;;;8.54;90.05
53647;BME280;39550;52.230;5.194;2023-02-18T14:25:49;101687.09;;;8.37;90.81
53647;BME280;39550;52.230;5.194;2023-02-18T14:34:24;101686.28;;;8.38;90.76
53647;BME280;39550;52.230;5.194;2023-02-18T14:36:31;101649.19;;;8.01;90.91
53647;BME280;39550;52.230;5.194;2023-02-18T14:42:08;101713.22;;;8.24;91.68
53647;BME280;39550;52.230;5.194;2023-02-18T14:45:03;101712.44;;;8.26;92.32
53647;BME280;39550;52.230;5.194;2023-02-18T14:50:48;101678.16;;;7.97;91.88
53647;BME280;39550;52.230;5.194;2023-02-18T14:53:25;101652.81;;;7.80;92.27
53647;BME280;39550;52.230;5.194;2023-02-18T14:56:04;101721.78;;;8.23;92.30
53647;BME280;39550;52.230;5.194;2023-02-18T14:58:36;101726.06;;;8.24;92.55
53647;BME280;39550;52.230;5.194;2023-02-18T15:01:21;101679.59;;;7.89;92.79
53647;BME280;39550;52.230;5.194;2023-02-18T15:03:54;101666.59;;;7.82;92.34
53647;BME280;39550;52.230;5.194;2023-02-18T15:06:36;101717.09;;;8.11;92.81
53647;BME280;39550;52.230;5.194;2023-02-18T15:09:20;101710.06;;;8.05;92.72
53647;BME280;39550;52.230;5.194;2023-02-18T15:12:04;101662.94;;;7.76;93.09
53647;BME280;39550;52.230;5.194;2023-02-18T15:14:39;101736.97;;;8.16;93.33
53647;BME280;39550;52.230;5.194;2023-02-18T15:17:13;101669.81;;;7.77;92.83
53647;BME280;39550;52.230;5.194;2023-02-18T15:19:53;101703.81;;;7.97;92.96
53647;BME280;39550;52.230;5.194;2023-02-18T15:22:28;101671.56;;;7.78;92.87
53647;BME280;39550;52.230;5.194;2023-02-18T15:25:04;101691.81;;;7.96;92.61
53647;BME280;39550;52.230;5.194;2023-02-18T15:27:38;101672.53;;;7.81;92.65
53647;BME280;39550;52.230;5.194;2023-02-18T15:30:27;101725.88;;;8.17;92.70
53647;BME280;39550;52.230;5.194;2023-02-18T15:32:55;101664.78;;;7.80;92.83
53647;BME280;39550;52.230;5.194;2023-02-18T15:35:30;101707.50;;;8.05;92.39
53647;BME280;39550;52.230;5.194;2023-02-18T15:37:58;101731.00;;;8.17;92.95
53647;BME280;39550;52.230;5.194;2023-02-18T15:40:35;101659.41;;;7.72;92.91
53647;BME280;39550;52.230;5.194;2023-02-18T15:43:06;101742.00;;;8.13;93.17
53647;BME280;39550;52.230;5.194;2023-02-18T15:45:34;101715.22;;;8.05;93.06
53647;BME280;39550;52.230;5.194;2023-02-18T15:48:01;101707.31;;;7.99;93.33
53647;BME280;39550;52.230;5.194;2023-02-18T15:50:44;101661.88;;;7.69;93.49
53647;BME280;39550;52.230;5.194;2023-02-18T15:53:13;101732.56;;;8.12;93.42
53647;BME280;39550;52.230;5.194;2023-02-18T15:55:42;101716.91;;;8.05;93.51
53647;BME280;39550;52.230;5.194;2023-02-18T15:58:22;101730.72;;;8.08;93.09
53647;BME280;39550;52.230;5.194;2023-02-18T16:00:51;101678.34;;;7.76;93.08
53647;BME280;39550;52.230;5.194;2023-02-18T16:03:28;101702.19;;;7.99;93.29
53647;BME280;39550;52.230;5.194;2023-02-18T16:08:54;101655.88;;;7.69;93.57
53647;BME280;39550;52.230;5.194;2023-02-18T16:11:23;101674.28;;;7.82;93.39
53647;BME280;39550;52.230;5.194;2023-02-18T16:13:57;101711.81;;;8.06;93.43
53647;BME280;39550;52.230;5.194;2023-02-18T16:16:34;101723.78;;;8.06;93.51
53647;BME280;39550;52.230;5.194;2023-02-18T16:19:01;101685.28;;;7.78;93.63
53647;BME280;39550;52.230;5.194;2023-02-18T16:23:57;101695.72;;;7.84;93.49
53647;BME280;39550;52.230;5.194;2023-02-18T16:26:41;101734.94;;;8.06;93.53
53647;BME280;39550;52.230;5.194;2023-02-18T16:29:14;101704.41;;;7.88;93.45
53647;BME280;39550;52.230;5.194;2023-02-18T16:31:43;101692.19;;;7.81;93.74
53647;BME280;39550;52.230;5.194;2023-02-18T16:34:12;101710.50;;;7.92;93.43
53647;BME280;39550;52.230;5.194;2023-02-18T16:36:37;101723.53;;;7.98;93.85
53647;BME280;39550;52.230;5.194;2023-02-18T16:39:23;101691.25;;;7.79;93.97
53647;BME280;39550;52.230;5.194;2023-02-18T16:41:48;101691.25;;;7.79;93.31
53647;BME280;39550;52.230;5.194;2023-02-18T16:44:21;101688.66;;;7.77;93.66
53647;BME280;39550;52.230;5.194;2023-02-18T16:46:50;101695.59;;;7.80;93.82
53647;BME280;39550;52.230;5.194;2023-02-18T16:49:25;101682.31;;;7.66;93.88
53647;BME280;39550;52.230;5.194;2023-02-18T16:51:51;101675.47;;;7.66;93.88
53647;BME280;39550;52.230;5.194;2023-02-18T16:54:17;101671.06;;;7.62;93.98
53647;BME280;39550;52.230;5.194;2023-02-18T16:56:49;101731.34;;;8.01;94.04
53647;BME280;39550;52.230;5.194;2023-02-18T16:59:23;101683.25;;;7.70;94.03
53647;BME280;39550;52.230;5.194;2023-02-18T17:01:52;101701.88;;;7.90;94.09
53647;BME280;39550;52.230;5.194;2023-02-18T17:04:20;101654.56;;;7.56;93.95
53647;BME280;39550;52.230;5.194;2023-02-18T17:06:53;101709.31;;;7.82;93.72
53647;BME280;39550;52.230;5.194;2023-02-18T17:09:29;101696.25;;;7.74;94.25
53647;BME280;39550;52.230;5.194;2023-02-18T17:12:14;101733.84;;;7.99;94.32
53647;BME280;39550;52.230;5.194;2023-02-18T17:14:49;101716.53;;;7.92;94.09
53647;BME280;39550;52.230;5.194;2023-02-18T17:17:20;101673.56;;;7.61;93.89
53647;BME280;39550;52.230;5.194;2023-02-18T17:19:58;101692.84;;;7.75;94.08
53647;BME280;39550;52.230;5.194;2023-02-18T17:22:27;101736.38;;;7.98;94.01
53647;BME280;39550;52.230;5.194;2023-02-18T17:24:59;101737.22;;;7.98;93.74
53647;BME280;39550;52.230;5.194;2023-02-18T17:27:39;101711.94;;;7.83;94.29
53647;BME280;39550;52.230;5.194;2023-02-18T17:30:16;101655.41;;;7.55;94.67
53647;BME280;39550;52.230;5.194;2023-02-18T17:32:58;101722.59;;;7.96;94.17
53647;BME280;39550;52.230;5.194;2023-02-18T17:35:35;101724.34;;;7.97;94.37
53647;BME280;39550;52.230;5.194;2023-02-18T17:38:18;101708.56;;;7.84;94.49
53647;BME280;39550;52.230;5.194;2023-02-18T17:40:50;101733.00;;;7.99;94.37
53647;BME280;39550;52.230;5.194;2023-02-18T17:43:18;101726.91;;;7.97;94.28
53647;BME280;39550;52.230;5.194;2023-02-18T17:45:54;101731.25;;;7.98;93.90
53647;BME280;39550;52.230;5.194;2023-02-18T17:48:21;101728.69;;;7.98;94.38
53647;BME280;39550;52.230;5.194;2023-02-18T17:50:47;101726.88;;;7.95;93.80
53647;BME280;39550;52.230;5.194;2023-02-18T17:53:14;101737.19;;;7.97;94.32
53647;BME280;39550;52.230;5.194;2023-02-18T17:55:40;101737.94;;;7.94;94.03
53647;BME280;39550;52.230;5.194;2023-02-18T17:58:07;101741.41;;;7.95;94.13
53647;BME280;39550;52.230;5.194;2023-02-18T18:00:34;101743.13;;;7.96;94.08
53647;BME280;39550;52.230;5.194;2023-02-18T18:03:01;101738.72;;;7.92;94.53
53647;BME280;39550;52.230;5.194;2023-02-18T18:05:35;101746.56;;;7.95;94.27
53647;BME280;39550;52.230;5.194;2023-02-18T18:08:02;101743.91;;;7.93;94.29
53647;BME280;39550;52.230;5.194;2023-02-18T18:10:30;101741.34;;;7.93;94.05
53647;BME280;39550;52.230;5.194;2023-02-18T18:12:58;101737.03;;;7.92;95.05
53647;BME280;39550;52.230;5.194;2023-02-18T18:17:56;101736.19;;;7.93;95.33
53647;BME280;39550;52.230;5.194;2023-02-18T18:20:24;101745.56;;;7.91;94.53
53647;BME280;39550;52.230;5.194;2023-02-18T18:22:51;101745.59;;;7.93;94.94
53647;BME280;39550;52.230;5.194;2023-02-18T18:25:41;101741.25;;;7.90;95.18
53647;BME280;39550;52.230;5.194;2023-02-18T18:28:07;101737.00;;;7.91;95.18
53647;BME280;39550;52.230;5.194;2023-02-18T18:30:35;101743.81;;;7.90;95.19
53647;BME280;39550;52.230;5.194;2023-02-18T18:33:02;101750.66;;;7.90;94.81